Time;durP1;ratioP1;P1;durP2;ratioP2;P2;SDS_P1;SDS_P2;PMS_P1;PMS_P2;Temp;Humidity;BMP_temperature;BMP_pressure;BME280_temperature;BME280_humidity;BME280_pressure;Samples;Min_cycle;Max_cycle;Signal;HPM_P1;HPM_P2
2022/03/21 00:01:16;;;;;;;10.90;6.20;;;;;;;-0.90;34.82;102713.04;117383;1184;22932;-60
2022/03/21 00:03:47;;;;;;;11.20;6.60;;;;;;;-0.90;34.70;102709.02;117358;1185;21857;-60
2022/03/21 00:06:15;;;;;;;12.00;6.10;;;;;;;-0.88;34.84;102711.55;117455;1185;23503;-47
2022/03/21 00:09:03;;;;;;;11.00;6.90;;;;;;;-0.88;34.81;102710.73;117338;1182;21935;-60
2022/03/21 00:11:33;;;;;;;13.50;8.00;;;;;;;-0.88;35.02;102713.29;117357;1184;22882;-60
2022/03/21 00:14:04;;;;;;;11.90;7.10;;;;;;;-0.89;34.92;102712.39;117449;1185;23550;-47
2022/03/21 00:16:32;;;;;;;12.60;7.40;;;;;;;-0.92;34.84;102709.98;117410;1188;21858;-47
2022/03/21 00:19:05;;;;;;;13.10;7.40;;;;;;;-0.95;34.81;102707.51;117331;1184;23903;-47
2022/03/21 00:21:36;;;;;;;12.70;7.10;;;;;;;-0.97;34.86;102703.71;117390;1185;21833;-48
2022/03/21 00:24:05;;;;;;;11.80;6.60;;;;;;;-0.99;34.92;102701.84;117513;1185;22922;-47
2022/03/21 00:26:53;;;;;;;16.00;6.70;;;;;;;-1.04;34.85;102703.05;117367;1185;21858;-60
2022/03/21 00:29:24;;;;;;;11.50;6.60;;;;;;;-1.08;34.95;102704.99;117364;1185;21857;-48
2022/03/21 00:31:54;;;;;;;12.70;6.80;;;;;;;-1.12;34.95;102704.70;117449;1185;21859;-47
2022/03/21 00:34:43;;;;;;;14.50;7.30;;;;;;;-1.19;34.86;102701.11;117341;1185;21893;-47
2022/03/21 00:37:23;;;;;;;13.20;7.30;;;;;;;-1.22;34.94;102697.95;117298;1185;24167;-47
2022/03/21 00:39:51;;;;;;;14.00;6.90;;;;;;;-1.24;34.89;102694.91;117365;1182;21859;-48
2022/03/21 00:42:27;;;;;;;14.40;6.40;;;;;;;-1.24;34.99;102695.73;117277;1186;23480;-61
2022/03/21 00:45:05;;;;;;;14.30;6.90;;;;;;;-1.24;34.96;102690.41;117355;1184;23470;-60
2022/03/21 00:47:33;;;;;;;12.70;7.30;;;;;;;-1.25;35.03;102688.75;117378;1185;23923;-51
2022/03/21 00:50:09;;;;;;;13.60;7.30;;;;;;;-1.28;34.93;102684.25;117307;1185;21848;-57
2022/03/21 00:52:44;;;;;;;14.60;7.90;;;;;;;-1.33;34.91;102685.96;117444;1185;23652;-61
2022/03/21 00:55:13;;;;;;;14.90;8.20;;;;;;;-1.37;35.02;102682.41;117376;1181;21875;-48
2022/03/21 00:57:42;;;;;;;16.20;8.30;;;;;;;-1.38;35.27;102675.63;117416;1185;21862;-48
2022/03/21 01:00:13;;;;;;;14.20;7.50;;;;;;;-1.36;35.26;102675.90;117418;1185;21852;-48
2022/03/21 01:02:42;;;;;;;16.20;8.40;;;;;;;-1.36;35.29;102677.86;117370;1182;21849;-49
2022/03/21 01:05:11;;;;;;;15.10;7.70;;;;;;;-1.33;35.29;102672.70;117375;1184;22623;-49
2022/03/21 01:07:41;;;;;;;15.50;8.60;;;;;;;-1.29;35.44;102673.81;117420;1185;22640;-49
2022/03/21 01:10:27;;;;;;;16.20;8.10;;;;;;;-1.29;35.37;102672.13;117369;1185;23445;-49
2022/03/21 01:12:55;;;;;;;14.60;7.30;;;;;;;-1.30;35.44;102671.52;117371;1185;24236;-48
2022/03/21 01:15:25;;;;;;;16.20;7.80;;;;;;;-1.31;35.43;102668.85;117351;1185;23444;-48
2022/03/21 01:18:12;;;;;;;14.10;7.70;;;;;;;-1.29;35.45;102663.83;117419;1185;24165;-48
2022/03/21 01:20:42;;;;;;;16.20;7.90;;;;;;;-1.29;35.69;102662.81;117420;1180;24158;-60
2022/03/21 01:23:10;;;;;;;11.20;6.50;;;;;;;-1.30;35.65;102662.01;117363;1185;23493;-61
2022/03/21 01:25:40;;;;;;;17.70;8.30;;;;;;;-1.30;35.65;102662.19;117411;1184;23523;-48
2022/03/21 01:28:09;;;;;;;15.20;8.90;;;;;;;-1.32;35.64;102658.28;117398;1184;24299;-48
2022/03/21 01:30:38;;;;;;;15.70;8.30;;;;;;;-1.37;35.72;102658.13;117389;1184;24152;-60
2022/03/21 01:33:07;;;;;;;14.70;7.40;;;;;;;-1.39;35.57;102660.04;117365;1185;21947;-48
2022/03/21 01:35:36;;;;;;;15.20;7.50;;;;;;;-1.36;35.71;102661.80;117386;1182;22921;-47
2022/03/21 01:38:05;;;;;;;14.80;7.60;;;;;;;-1.32;35.81;102662.42;117396;1185;23477;-48
2022/03/21 01:40:34;;;;;;;13.10;7.90;;;;;;;-1.29;35.65;102665.07;117360;1185;23548;-48
2022/03/21 01:43:08;;;;;;;16.80;7.60;;;;;;;-1.27;35.73;102659.30;117402;1184;21993;-60
2022/03/21 01:45:37;;;;;;;14.50;7.80;;;;;;;-1.30;35.80;102658.28;117364;1185;21855;-48
2022/03/21 01:48:05;;;;;;;17.80;8.70;;;;;;;-1.30;35.69;102653.05;117319;1186;21966;-49
2022/03/21 01:50:37;;;;;;;12.10;6.40;;;;;;;-1.30;35.64;102652.88;117314;1184;23573;-48
2022/03/21 01:55:54;;;;;;;14.50;7.30;;;;;;;-1.28;35.93;102649.63;117227;1184;22486;-61
2022/03/21 01:58:24;;;;;;;12.70;6.80;;;;;;;-1.26;36.01;102651.98;117337;1186;22700;-48
2022/03/21 02:00:53;;;;;;;16.30;7.60;;;;;;;-1.25;35.88;102652.92;117404;1185;23520;-61
2022/03/21 02:03:22;;;;;;;10.00;5.30;;;;;;;-1.24;36.12;102655.73;117435;1184;21848;-50
2022/03/21 02:05:51;;;;;;;13.70;7.10;;;;;;;-1.24;35.98;102655.55;117476;1184;22275;-61
2022/03/21 02:08:21;;;;;;;13.40;6.80;;;;;;;-1.25;36.13;102657.39;117289;1184;23447;-61
2022/03/21 02:10:51;;;;;;;15.00;7.00;;;;;;;-1.25;36.14;102663.24;117425;1184;23445;-61
2022/03/21 02:13:21;;;;;;;;;;;;;;;-1.23;35.98;102660.45;117415;1186;21824;-61
2022/03/21 02:15:50;;;;;;;13.10;6.80;;;;;;;-1.19;36.07;102658.67;117351;1184;22316;-61
2022/03/21 02:18:18;;;;;;;14.10;7.50;;;;;;;-1.17;36.10;102662.95;117315;1185;23435;-61
2022/03/21 02:20:47;;;;;;;12.00;7.00;;;;;;;-1.22;36.02;102660.37;117331;1185;23445;-49
2022/03/21 02:23:42;;;;;;;14.50;7.60;;;;;;;-1.30;36.08;102656.65;117378;1185;23458;-49
2022/03/21 02:26:11;;;;;;;12.90;7.00;;;;;;;-1.34;36.39;102659.73;117448;1185;21887;-48
2022/03/21 02:28:40;;;;;;;15.70;6.80;;;;;;;-1.36;36.13;102657.30;117393;1185;21852;-61
2022/03/21 02:31:08;;;;;;;11.90;6.70;;;;;;;-1.38;36.24;102655.64;117352;1188;21855;-61
2022/03/21 02:33:40;;;;;;;12.60;7.50;;;;;;;-1.40;36.31;102659.28;117365;1186;22912;-48
2022/03/21 02:36:09;;;;;;;15.70;8.40;;;;;;;-1.39;36.03;102661.41;117382;1185;23499;-61
2022/03/21 02:38:38;;;;;;;13.60;7.40;;;;;;;-1.36;36.29;102661.29;117364;1182;21858;-48
2022/03/21 02:41:07;;;;;;;12.50;6.30;;;;;;;-1.36;36.21;102662.88;117526;1185;22829;-49
2022/03/21 02:43:55;;;;;;;12.00;7.40;;;;;;;-1.45;36.40;102666.27;117449;1184;24143;-61
2022/03/21 02:46:27;;;;;;;10.90;5.70;;;;;;;-1.53;36.33;102668.14;117376;1184;23484;-48
2022/03/21 02:48:56;;;;;;;11.20;6.50;;;;;;;-1.63;36.43;102661.91;117417;1185;21859;-61
2022/03/21 02:51:25;;;;;;;13.80;6.80;;;;;;;-1.63;36.46;102663.41;117406;1185;21866;-48
2022/03/21 02:53:54;;;;;;;12.00;6.70;;;;;;;-1.67;36.59;102661.95;117384;1184;21849;-61
2022/03/21 02:56:22;;;;;;;13.90;7.50;;;;;;;-1.70;36.65;102661.92;117375;1181;23471;-60
2022/03/21 02:58:51;;;;;;;12.40;6.20;;;;;;;-1.71;36.58;102660.93;117369;1185;23448;-48
2022/03/21 03:01:20;;;;;;;14.00;7.10;;;;;;;-1.71;36.67;102663.85;117355;1184;23003;-61
2022/03/21 03:03:49;;;;;;;12.20;7.30;;;;;;;-1.72;36.51;102664.16;117299;1182;21864;-61
2022/03/21 03:06:17;;;;;;;11.40;5.80;;;;;;;-1.69;36.57;102658.66;117381;1185;23442;-49
2022/03/21 03:08:45;;;;;;;13.70;6.70;;;;;;;-1.68;36.60;102657.92;117389;1185;24735;-61
2022/03/21 03:11:14;;;;;;;14.40;6.90;;;;;;;-1.68;36.52;102657.73;117455;1185;23445;-49
2022/03/21 03:13:44;;;;;;;16.80;6.90;;;;;;;-1.69;36.69;102656.42;117355;1181;21856;-49
2022/03/21 03:16:13;;;;;;;13.60;6.80;;;;;;;-1.72;36.60;102653.30;117403;1184;22922;-61
2022/03/21 03:18:44;;;;;;;12.90;7.30;;;;;;;-1.72;36.63;102652.23;117412;1184;23455;-61
2022/03/21 03:21:14;;;;;;;14.00;7.20;;;;;;;-1.72;36.81;102654.69;117325;1184;21878;-49
2022/03/21 03:23:42;;;;;;;13.90;7.70;;;;;;;-1.73;36.81;102652.89;117176;1186;23448;-48
2022/03/21 03:26:11;;;;;;;13.90;6.90;;;;;;;-1.73;36.82;102654.60;117351;1186;23569;-61
2022/03/21 03:28:39;;;;;;;13.00;7.30;;;;;;;-1.73;36.84;102658.70;117390;1185;23573;-49
2022/03/21 03:31:15;;;;;;;12.90;6.70;;;;;;;-1.74;36.79;102652.29;117329;1184;22646;-48
2022/03/21 03:33:46;;;;;;;13.10;7.30;;;;;;;-1.74;36.85;102654.35;117399;1180;24168;-48
2022/03/21 03:36:15;;;;;;;13.60;7.30;;;;;;;-1.76;36.71;102652.16;117365;1185;21853;-61
2022/03/21 03:38:44;;;;;;;;;;;;;;;-1.75;36.98;102649.06;117497;1185;22303;-49
2022/03/21 03:41:13;;;;;;;12.10;7.00;;;;;;;-1.74;36.94;102647.31;117356;1185;24175;-61
2022/03/21 03:43:43;;;;;;;14.00;7.20;;;;;;;-1.73;37.14;102646.16;117349;1185;21934;-61
2022/03/21 03:46:12;;;;;;;12.80;6.50;;;;;;;-1.71;37.08;102645.45;117402;1184;21851;-62
2022/03/21 03:48:41;;;;;;;14.40;7.20;;;;;;;-1.70;37.29;102641.42;117430;1184;24158;-61
2022/03/21 03:51:11;;;;;;;15.00;8.60;;;;;;;-1.70;37.32;102643.31;117367;1182;21844;-49
2022/03/21 03:53:40;;;;;;;15.50;7.80;;;;;;;-1.73;37.07;102640.63;117362;1182;22922;-61
2022/03/21 03:56:08;;;;;;;13.80;7.40;;;;;;;-1.77;37.35;102636.77;117357;1184;21854;-61
2022/03/21 03:58:39;;;;;;;12.60;7.60;;;;;;;-1.82;37.24;102629.83;117365;1180;21852;-48
2022/03/21 04:01:07;;;;;;;11.90;7.20;;;;;;;-1.85;37.32;102627.05;117416;1185;23466;-60
2022/03/21 04:03:45;;;;;;;14.30;7.40;;;;;;;-1.85;37.36;102626.34;117375;1185;21935;-48
2022/03/21 04:06:21;;;;;;;12.00;6.90;;;;;;;-1.85;37.28;102621.36;117456;1185;21906;-48
2022/03/21 04:08:52;;;;;;;12.10;7.00;;;;;;;-1.84;37.42;102616.95;117440;1179;24153;-48
2022/03/21 04:11:21;;;;;;;15.30;7.90;;;;;;;-1.82;37.37;102612.63;117351;1182;21849;-50
2022/03/21 04:14:10;;;;;;;13.20;8.20;;;;;;;-1.81;37.55;102618.27;117325;1183;22613;-50
2022/03/21 04:16:44;;;;;;;12.70;7.00;;;;;;;-1.79;37.53;102620.94;117286;1184;21852;-61
2022/03/21 04:19:13;;;;;;;11.10;6.80;;;;;;;-1.76;37.69;102629.92;117334;1185;21932;-48
2022/03/21 04:21:58;;;;;;;14.10;6.90;;;;;;;-1.72;37.55;102628.48;118109;1185;24823;-61
2022/03/21 04:24:27;;;;;;;14.00;7.10;;;;;;;-1.67;37.51;102625.60;117395;1185;21849;-47
2022/03/21 04:26:55;;;;;;;12.20;7.20;;;;;;;-1.61;37.74;102626.73;117349;1185;23475;-48
2022/03/21 04:29:24;;;;;;;12.10;7.50;;;;;;;-1.52;37.64;102626.48;117453;1184;23472;-48
2022/03/21 04:31:53;;;;;;;12.40;7.10;;;;;;;-1.42;37.94;102630.16;117338;1185;23458;-47
2022/03/21 04:34:22;;;;;;;11.40;7.00;;;;;;;-1.34;37.82;102631.30;117300;1185;23448;-64
2022/03/21 04:36:50;;;;;;;19.40;7.80;;;;;;;-1.22;38.00;102629.20;117300;1185;21863;-64
2022/03/21 04:39:19;;;;;;;18.40;8.50;;;;;;;-1.13;38.17;102628.98;117351;1185;21852;-48
2022/03/21 04:41:49;;;;;;;13.20;7.60;;;;;;;-1.04;38.16;102626.54;117312;1184;24277;-61
2022/03/21 04:44:24;;;;;;;14.00;7.50;;;;;;;-0.95;38.04;102622.34;117310;1185;24168;-62
2022/03/21 04:46:53;;;;;;;13.00;7.40;;;;;;;-0.86;38.11;102623.44;117355;1186;23472;-48
2022/03/21 04:49:22;;;;;;;17.50;8.50;;;;;;;-0.77;38.41;102627.38;117351;1185;24166;-61
2022/03/21 04:51:50;;;;;;;15.90;8.00;;;;;;;-0.69;38.18;102629.78;117397;1184;21864;-61
2022/03/21 04:54:19;;;;;;;14.30;7.40;;;;;;;-0.60;38.26;102625.94;117367;1184;23464;-48
2022/03/21 04:56:48;;;;;;;19.40;9.30;;;;;;;-0.51;38.36;102625.05;117403;1185;21869;-61
2022/03/21 04:59:16;;;;;;;15.30;7.70;;;;;;;-0.42;38.48;102619.25;117380;1185;21852;-49
2022/03/21 05:01:46;;;;;;;17.20;8.50;;;;;;;-0.33;38.52;102615.03;117330;1184;21849;-48
2022/03/21 05:04:15;;;;;;;14.80;8.30;;;;;;;-0.23;38.42;102616.41;117353;1186;23493;-62
2022/03/21 05:06:46;;;;;;;16.20;8.20;;;;;;;-0.10;38.53;102621.59;117310;1185;21868;-62
2022/03/21 05:09:14;;;;;;;13.80;7.90;;;;;;;0.04;38.45;102632.69;117363;1185;22628;-48
2022/03/21 05:11:53;;;;;;;13.70;8.30;;;;;;;0.21;38.54;102635.55;117262;1182;23448;-62
2022/03/21 05:14:21;;;;;;;14.60;7.70;;;;;;;0.36;38.62;102631.20;117354;1185;23448;-49
2022/03/21 05:16:50;;;;;;;14.10;8.30;;;;;;;0.53;38.87;102625.66;117348;1185;23448;-48
2022/03/21 05:19:39;;;;;;;13.90;8.60;;;;;;;0.70;39.04;102618.83;117316;1184;21852;-63
2022/03/21 05:22:08;;;;;;;14.00;7.90;;;;;;;0.86;38.95;102617.91;117393;1185;23554;-63
2022/03/21 05:35:58;;;;;;;13.50;7.80;;;;;;;1.89;39.34;102614.48;117334;1185;23551;-49
2022/03/21 05:38:28;;;;;;;12.80;7.00;;;;;;;2.09;39.12;102615.16;117308;1183;21858;-64
2022/03/21 05:41:00;;;;;;;15.50;9.60;;;;;;;2.30;39.29;102615.98;117309;1185;23884;-61
2022/03/21 05:43:29;;;;;;;13.90;8.20;;;;;;;2.52;39.10;102617.58;117346;1185;22085;-49
2022/03/21 05:46:03;;;;;;;14.90;8.80;;;;;;;2.71;39.21;102615.56;117310;1186;22639;-49
2022/03/21 05:48:51;;;;;;;13.80;8.20;;;;;;;2.92;39.28;102613.55;117318;1185;21944;-49
2022/03/21 05:51:23;;;;;;;13.20;7.90;;;;;;;3.14;39.30;102607.27;117313;1185;21840;-49
2022/03/21 05:53:52;;;;;;;14.10;8.10;;;;;;;3.33;39.31;102601.89;117310;1185;21864;-66
2022/03/21 05:56:21;;;;;;;11.00;7.00;;;;;;;3.53;39.27;102597.21;117371;1185;23612;-66
2022/03/21 05:58:55;;;;;;;12.70;6.80;;;;;;;3.72;39.40;102598.34;117328;1185;23554;-48
2022/03/21 06:01:24;;;;;;;13.00;7.90;;;;;;;3.94;39.43;102592.69;117313;1185;21846;-64
2022/03/21 06:03:54;;;;;;;11.90;7.60;;;;;;;4.14;39.34;102589.86;117383;1185;21852;-49
2022/03/21 06:06:23;;;;;;;12.80;7.50;;;;;;;4.36;39.43;102587.08;117387;1185;21855;-65
2022/03/21 06:08:51;;;;;;;10.90;7.60;;;;;;;4.61;39.28;102591.77;117355;1185;23613;-67
2022/03/21 06:11:22;;;;;;;11.10;6.30;;;;;;;4.85;39.60;102582.61;117310;1185;23552;-67
2022/03/21 06:13:50;;;;;;;11.10;7.10;;;;;;;5.10;39.64;102573.16;117338;1185;24295;-65
2022/03/21 06:16:18;;;;;;;14.30;8.60;;;;;;;5.36;39.68;102580.40;117327;1185;23567;-62
2022/03/21 06:18:47;;;;;;;13.90;8.20;;;;;;;5.61;39.67;102579.56;117341;1185;23608;-49
2022/03/21 06:21:16;;;;;;;14.20;7.50;;;;;;;5.87;39.53;102572.67;117340;1185;21859;-48
2022/03/21 06:23:44;;;;;;;11.30;6.50;;;;;;;6.08;39.56;102571.65;117450;1184;21939;-49
2022/03/21 06:26:14;;;;;;;18.20;10.40;;;;;;;6.31;39.52;102572.40;117319;1185;23553;-48
2022/03/21 06:28:46;;;;;;;30.80;15.60;;;;;;;6.56;39.48;102573.92;117361;1184;22924;-50
2022/03/21 06:31:15;;;;;;;27.00;16.40;;;;;;;6.82;39.46;102568.11;117341;1185;22999;-49
2022/03/21 06:33:44;;;;;;;19.10;11.50;;;;;;;7.02;39.36;102563.64;117428;1182;21859;-65
2022/03/21 06:36:14;;;;;;;22.40;11.50;;;;;;;7.22;39.39;102554.60;117470;1183;23569;-66
2022/03/21 06:38:43;;;;;;;14.60;8.20;;;;;;;7.41;39.26;102547.59;117439;1185;21858;-64
2022/03/21 06:41:11;;;;;;;14.30;8.90;;;;;;;7.63;39.26;102542.23;118922;1183;21871;-48
2022/03/21 06:43:40;;;;;;;11.80;7.10;;;;;;;7.85;39.26;102544.01;118787;1184;24229;-63
2022/03/21 06:46:09;;;;;;;14.00;8.00;;;;;;;8.06;39.12;102542.63;117407;1185;24144;-65
2022/03/21 06:48:42;;;;;;;13.40;8.40;;;;;;;8.33;39.36;102542.95;117403;1184;23608;-48
2022/03/21 06:51:11;;;;;;;10.70;6.80;;;;;;;8.67;39.43;102538.95;117500;1181;24978;-66
2022/03/21 06:53:40;;;;;;;11.80;7.70;;;;;;;8.95;39.29;102534.20;117343;1184;22904;-48
2022/03/21 06:56:09;;;;;;;10.70;7.40;;;;;;;9.19;39.16;102532.58;117324;1185;23077;-65
2022/03/21 06:58:38;;;;;;;13.70;7.50;;;;;;;9.36;38.98;102523.75;117474;1185;23596;-65
2022/03/21 07:01:07;;;;;;;12.60;7.80;;;;;;;9.51;38.94;102523.09;117385;1185;23448;-48
2022/03/21 07:03:36;;;;;;;12.50;7.10;;;;;;;9.65;38.91;102522.06;117411;1185;21853;-49
2022/03/21 07:06:04;;;;;;;11.40;6.70;;;;;;;9.83;38.84;102523.91;117465;1185;23468;-49
2022/03/21 07:08:34;;;;;;;9.80;6.20;;;;;;;10.02;38.75;102522.43;117405;1185;24227;-49
2022/03/21 07:11:03;;;;;;;9.80;6.20;;;;;;;10.26;38.79;102523.71;117353;1184;23442;-65
2022/03/21 07:13:33;;;;;;;8.10;5.40;;;;;;;10.48;38.93;102515.65;117410;1185;21970;-64
2022/03/21 07:16:03;;;;;;;13.30;7.00;;;;;;;10.59;38.54;102510.63;117423;1184;23545;-64
2022/03/21 07:18:31;;;;;;;10.80;6.60;;;;;;;10.77;38.32;102511.70;117461;1184;23550;-66
2022/03/21 07:21:15;;;;;;;12.10;6.70;;;;;;;10.92;38.03;102513.43;117305;1185;23472;-66
2022/03/21 07:23:44;;;;;;;10.60;6.30;;;;;;;11.02;38.00;102509.95;117416;1182;21890;-63
2022/03/21 07:26:13;;;;;;;9.20;6.10;;;;;;;11.24;38.30;102508.96;117418;1184;23468;-65
2022/03/21 07:28:41;;;;;;;11.40;5.70;;;;;;;11.46;38.31;102510.95;117434;1185;23471;-49
2022/03/21 07:31:31;;;;;;;9.50;5.70;;;;;;;11.61;38.07;102506.10;117391;1184;21893;-65
2022/03/21 07:34:02;;;;;;;11.00;5.50;;;;;;;11.77;38.21;102502.50;117476;1184;22930;-53
2022/03/21 07:36:31;;;;;;;9.40;6.10;;;;;;;12.02;38.21;102502.73;117532;1185;22921;-67
2022/03/21 07:39:00;;;;;;;10.60;5.80;;;;;;;12.20;38.16;102505.84;117580;1184;22925;-66
2022/03/21 07:41:28;;;;;;;9.00;6.20;;;;;;;12.34;37.95;102504.11;117391;1184;22956;-66
2022/03/21 07:43:57;;;;;;;8.90;6.10;;;;;;;12.47;37.99;102504.65;117525;1185;23550;-67
2022/03/21 07:49:14;;;;;;;11.10;6.50;;;;;;;12.88;37.95;102492.67;117445;1184;21890;-66
2022/03/21 07:51:43;;;;;;;14.00;7.10;;;;;;;13.05;37.89;102487.21;117459;1185;21858;-69
2022/03/21 07:54:13;;;;;;;12.50;7.20;;;;;;;13.21;37.76;102484.22;117418;1180;24730;-69
2022/03/21 07:56:44;;;;;;;8.60;6.20;;;;;;;13.31;37.68;102485.91;117377;1185;23576;-50
2022/03/21 07:59:12;;;;;;;9.70;5.80;;;;;;;13.48;37.86;102482.39;117449;1184;21855;-68
2022/03/21 08:01:45;;;;;;;10.20;6.50;;;;;;;13.75;37.99;102480.16;117331;1184;21846;-67
2022/03/21 08:04:14;;;;;;;10.00;6.40;;;;;;;13.97;37.78;102472.55;117523;1185;21849;-50
2022/03/21 08:06:44;;;;;;;9.40;6.10;;;;;;;14.18;37.68;102471.81;117455;1184;21848;-51
2022/03/21 08:09:12;;;;;;;8.20;6.00;;;;;;;14.47;37.78;102467.55;117462;1185;21914;-66
2022/03/21 08:11:41;;;;;;;7.60;5.90;;;;;;;14.70;37.61;102468.90;117328;1184;23471;-66
2022/03/21 08:14:09;;;;;;;8.50;6.40;;;;;;;14.90;37.52;102467.76;117368;1185;24295;-68
2022/03/21 08:16:39;;;;;;;9.50;6.40;;;;;;;15.08;37.46;102461.44;117441;1185;21900;-51
2022/03/21 08:19:09;;;;;;;6.80;5.10;;;;;;;15.30;37.50;102459.88;117401;1185;22532;-67
2022/03/21 08:21:38;;;;;;;8.70;6.20;;;;;;;15.52;37.56;102455.30;117494;1185;24161;-50
2022/03/21 08:24:08;;;;;;;8.00;5.50;;;;;;;15.73;37.40;102451.93;117425;1184;21950;-54
2022/03/21 08:26:38;;;;;;;8.40;5.80;;;;;;;15.92;37.31;102446.27;117536;1184;23445;-59
2022/03/21 08:29:08;;;;;;;7.50;5.30;;;;;;;16.20;37.39;102451.34;117329;1184;21840;-68
2022/03/21 08:31:36;;;;;;;9.20;5.60;;;;;;;16.43;37.21;102447.20;117442;1185;23477;-67
2022/03/21 08:34:06;;;;;;;7.50;5.20;;;;;;;16.63;37.34;102440.02;117418;1185;23548;-50
2022/03/21 08:36:35;;;;;;;10.50;5.80;;;;;;;16.86;37.27;102436.36;117530;1185;22636;-50
2022/03/21 08:39:03;;;;;;;8.10;5.70;;;;;;;17.04;37.19;102436.64;117537;1182;21847;-51
2022/03/21 08:41:32;;;;;;;8.20;5.90;;;;;;;17.22;37.14;102429.07;117488;1183;22922;-68
2022/03/21 08:44:01;;;;;;;8.40;5.50;;;;;;;17.35;36.94;102422.41;117372;1184;23513;-68
2022/03/21 08:46:30;;;;;;;8.60;5.40;;;;;;;17.43;36.88;102423.05;117488;1183;24165;-52
2022/03/21 08:52:03;;;;;;;9.60;5.50;;;;;;;17.84;36.82;102416.83;117529;1185;22071;-66
2022/03/21 08:54:32;;;;;;;8.20;5.50;;;;;;;17.90;36.77;102407.69;117443;1185;22877;-69
2022/03/21 08:57:04;;;;;;;7.90;6.10;;;;;;;18.10;36.96;102409.83;117372;1184;23449;-52
2022/03/21 08:59:34;;;;;;;9.90;6.80;;;;;;;18.24;36.73;102402.02;117548;1185;21847;-68
2022/03/21 09:02:03;;;;;;;7.60;5.50;;;;;;;18.30;36.65;102398.02;117505;1185;22912;-51
2022/03/21 09:04:32;;;;;;;7.80;5.70;;;;;;;18.50;36.82;102397.24;117458;1185;23681;-70
2022/03/21 09:07:01;;;;;;;8.00;5.50;;;;;;;18.73;36.51;102393.19;117477;1185;23547;-51
2022/03/21 09:09:30;;;;;;;7.60;5.80;;;;;;;18.79;36.38;102393.27;117443;1184;21855;-68
2022/03/21 09:11:59;;;;;;;7.40;5.80;;;;;;;18.85;36.23;102391.95;117398;1184;21851;-68
2022/03/21 09:14:28;;;;;;;8.50;4.90;;;;;;;18.97;36.37;102382.18;117445;1186;22611;-51
2022/03/21 09:16:57;;;;;;;7.70;6.00;;;;;;;19.13;36.28;102379.97;117573;1180;22967;-66
2022/03/21 09:19:27;;;;;;;6.90;5.20;;;;;;;19.28;36.29;102378.49;117487;1181;23621;-50
2022/03/21 09:21:57;;;;;;;7.60;5.80;;;;;;;19.35;36.15;102368.93;117429;1184;23545;-49
2022/03/21 09:24:25;;;;;;;8.50;6.20;;;;;;;19.40;36.09;102364.23;117344;1185;22921;-67
2022/03/21 09:26:54;;;;;;;10.40;6.50;;;;;;;19.44;35.88;102360.41;117327;1185;23573;-67
2022/03/21 09:29:24;;;;;;;9.30;6.50;;;;;;;19.48;35.84;102357.50;117492;1184;23560;-67
2022/03/21 09:31:53;;;;;;;8.20;6.00;;;;;;;19.54;35.65;102353.83;119605;1183;21869;-51
2022/03/21 09:34:21;;;;;;;10.90;7.30;;;;;;;19.64;35.71;102347.95;118160;1180;22924;-53
2022/03/21 09:36:50;;;;;;;8.50;6.20;;;;;;;19.62;35.57;102344.96;117468;1184;22922;-67
2022/03/21 09:39:19;;;;;;;9.10;6.30;;;;;;;19.56;35.53;102344.54;117455;1186;22826;-50
2022/03/21 09:41:48;;;;;;;9.30;7.00;;;;;;;19.44;35.32;102339.77;117477;1184;23472;-70
2022/03/21 09:44:17;;;;;;;10.10;7.00;;;;;;;19.30;35.22;102338.23;117395;1185;24906;-67
2022/03/21 09:46:47;;;;;;;12.00;7.30;;;;;;;19.36;35.51;102338.83;117428;1184;21849;-66
2022/03/21 09:49:16;;;;;;;9.90;6.70;;;;;;;19.43;35.44;102334.80;117489;1183;23445;-50
2022/03/21 09:51:45;;;;;;;9.00;6.90;;;;;;;19.48;35.40;102338.07;117480;1185;21854;-49
2022/03/21 09:54:15;;;;;;;12.30;8.10;;;;;;;19.49;35.19;102338.78;117478;1186;21840;-67
2022/03/21 09:56:44;;;;;;;11.10;8.20;;;;;;;19.33;34.96;102338.71;117414;1185;24148;-69
2022/03/21 09:59:13;;;;;;;11.10;7.70;;;;;;;19.22;34.90;102332.67;117346;1185;23435;-68
2022/03/21 10:01:43;;;;;;;12.30;8.00;;;;;;;19.28;35.02;102324.40;117495;1184;23576;-51
2022/03/21 10:04:12;;;;;;;10.00;6.80;;;;;;;19.32;34.93;102320.41;117523;1185;22687;-69
2022/03/21 10:06:44;;;;;;;8.40;5.90;;;;;;;19.40;34.48;102316.34;117316;1184;23577;-52
2022/03/21 10:09:21;;;;;;;7.80;5.80;;;;;;;19.40;34.69;102315.45;117223;1185;21859;-66
2022/03/21 10:11:51;;;;;;;9.40;6.10;;;;;;;19.69;34.98;102312.40;117397;1184;22335;-68
2022/03/21 10:14:28;;;;;;;;;;;;;;;20.00;34.84;102307.17;117436;1185;23557;-50
2022/03/21 10:17:00;;;;;;;11.00;7.00;;;;;;;20.13;34.61;102301.38;117474;1184;21923;-50
2022/03/21 10:19:51;;;;;;;14.40;9.40;;;;;;;20.15;34.53;102299.89;117429;1187;22947;-68
2022/03/21 10:22:37;;;;;;;10.10;7.10;;;;;;;20.11;34.44;102296.97;117542;1185;23815;-68
2022/03/21 10:25:07;;;;;;;10.80;7.70;;;;;;;19.91;34.06;102294.34;117363;1184;23573;-68
2022/03/21 10:27:43;;;;;;;8.50;6.20;;;;;;;19.69;34.01;102293.16;117439;1185;23536;-49
2022/03/21 10:30:31;;;;;;;8.90;5.80;;;;;;;19.52;34.01;102289.59;117436;1184;24203;-56
2022/03/21 10:33:00;;;;;;;11.10;6.50;;;;;;;19.45;33.97;102282.24;117382;1184;21859;-63
2022/03/21 10:35:30;;;;;;;8.30;6.00;;;;;;;19.47;34.11;102285.23;117447;1184;22919;-51
2022/03/21 10:38:03;;;;;;;9.30;6.70;;;;;;;19.50;33.99;102283.59;117284;1184;24180;-64
2022/03/21 10:40:42;;;;;;;10.10;6.60;;;;;;;19.48;33.73;102280.40;117374;1185;21845;-62
2022/03/21 10:43:13;;;;;;;9.10;5.60;;;;;;;19.42;33.77;102274.30;117309;1185;21853;-51
2022/03/21 10:45:49;;;;;;;8.30;6.10;;;;;;;19.37;33.58;102271.18;117332;1185;23552;-52
2022/03/21 10:48:20;;;;;;;10.00;7.10;;;;;;;19.54;33.88;102272.27;117352;1185;21858;-51
2022/03/21 10:50:51;;;;;;;10.40;7.30;;;;;;;19.74;33.66;102268.31;117387;1185;23084;-64
2022/03/21 10:53:23;;;;;;;12.00;7.20;;;;;;;19.65;32.93;102266.89;117354;1186;21852;-52
2022/03/21 10:55:59;;;;;;;11.30;7.70;;;;;;;19.48;33.09;102258.50;117320;1185;23640;-65
2022/03/21 10:58:41;;;;;;;10.30;7.00;;;;;;;19.30;32.97;102258.31;117315;1183;21871;-64
2022/03/21 11:01:27;;;;;;;12.20;7.30;;;;;;;19.03;32.79;102252.40;117425;1185;23647;-52
2022/03/21 11:03:59;;;;;;;9.70;7.40;;;;;;;18.78;32.92;102256.73;117395;1184;23445;-64
2022/03/21 11:06:29;;;;;;;12.90;8.40;;;;;;;18.63;33.29;102243.98;117372;1184;22959;-64
2022/03/21 11:08:58;;;;;;;10.80;7.80;;;;;;;18.68;33.37;102239.10;117272;1185;21970;-53
2022/03/21 11:11:27;;;;;;;13.50;8.60;;;;;;;18.78;33.33;102242.85;117431;1185;24237;-52
2022/03/21 11:13:56;;;;;;;11.10;7.80;;;;;;;18.74;33.22;102238.65;117364;1185;23550;-64
2022/03/21 11:16:25;;;;;;;13.30;9.20;;;;;;;18.69;33.18;102230.02;117446;1184;24168;-64
2022/03/21 11:18:56;;;;;;;11.50;7.50;;;;;;;18.69;33.10;102219.71;117196;1185;23551;-52
2022/03/21 11:21:25;;;;;;;9.30;7.30;;;;;;;18.84;33.37;102215.36;117357;1185;21842;-53
2022/03/21 11:23:54;;;;;;;10.30;7.20;;;;;;;18.98;33.05;102212.83;117230;1186;24740;-53
2022/03/21 11:26:31;;;;;;;10.70;6.90;;;;;;;19.19;33.30;102210.30;117329;1185;21855;-52
2022/03/21 11:29:21;;;;;;;11.10;6.80;;;;;;;19.56;33.47;102205.83;117349;1185;22092;-68
2022/03/21 11:31:58;;;;;;;9.60;6.60;;;;;;;19.92;33.48;102213.98;117427;1185;24169;-67
2022/03/21 11:34:54;;;;;;;10.10;6.70;;;;;;;20.05;33.12;102206.38;117390;1184;22653;-50
2022/03/21 11:37:24;;;;;;;13.80;8.10;;;;;;;19.97;32.98;102201.93;117348;1184;23554;-67
2022/03/21 11:40:30;;;;;;;10.00;6.70;;;;;;;19.88;32.95;102196.78;117349;1185;22988;-66
2022/03/21 11:43:17;;;;;;;9.80;6.70;;;;;;;19.74;32.82;102194.39;117331;1185;23449;-64
2022/03/21 11:45:47;;;;;;;9.80;6.70;;;;;;;19.46;31.78;102186.27;117531;1185;21852;-63
2022/03/21 11:48:16;;;;;;;10.10;7.50;;;;;;;19.08;32.00;102190.76;117320;1185;21859;-63
2022/03/21 11:50:46;;;;;;;10.60;7.20;;;;;;;18.91;32.35;102186.59;117431;1185;24148;-52